地図

経路データ

SID SEASON NUMBER BASIN SUBBASIN NAME ISO_TIME NATURE LAT LON WMO_WIND WMO_PRES WMO_AGENCY TRACK_TYPE DIST2LAND LANDFALL IFLAG USA_AGENCY USA_ATCF_ID USA_LAT USA_LON USA_RECORD USA_STATUS USA_WIND USA_PRES USA_SSHS USA_R34_NE USA_R34_SE USA_R34_SW USA_R34_NW USA_R50_NE USA_R50_SE USA_R50_SW USA_R50_NW USA_R64_NE USA_R64_SE USA_R64_SW USA_R64_NW USA_POCI USA_ROCI USA_RMW USA_EYE TOKYO_LAT TOKYO_LON TOKYO_GRADE TOKYO_WIND TOKYO_PRES TOKYO_R50_DIR TOKYO_R50_LONG TOKYO_R50_SHORT TOKYO_R30_DIR TOKYO_R30_LONG TOKYO_R30_SHORT TOKYO_LAND CMA_LAT CMA_LON CMA_CAT CMA_WIND CMA_PRES HKO_LAT HKO_LON HKO_CAT HKO_WIND HKO_PRES NEWDELHI_LAT NEWDELHI_LON NEWDELHI_GRADE NEWDELHI_WIND NEWDELHI_PRES NEWDELHI_CI NEWDELHI_DP NEWDELHI_POCI REUNION_LAT REUNION_LON REUNION_TYPE REUNION_WIND REUNION_PRES REUNION_TNUM REUNION_CI REUNION_RMW REUNION_R34_NE REUNION_R34_SE REUNION_R34_SW REUNION_R34_NW REUNION_R50_NE REUNION_R50_SE REUNION_R50_SW REUNION_R50_NW REUNION_R64_NE REUNION_R64_SE REUNION_R64_SW REUNION_R64_NW BOM_LAT BOM_LON BOM_TYPE BOM_WIND BOM_PRES BOM_TNUM BOM_CI BOM_RMW BOM_R34_NE BOM_R34_SE BOM_R34_SW BOM_R34_NW BOM_R50_NE BOM_R50_SE BOM_R50_SW BOM_R50_NW BOM_R64_NE BOM_R64_SE BOM_R64_SW BOM_R64_NW BOM_ROCI BOM_POCI BOM_EYE BOM_POS_METHOD BOM_PRES_METHOD NADI_LAT NADI_LON NADI_CAT NADI_WIND NADI_PRES WELLINGTON_LAT WELLINGTON_LON WELLINGTON_WIND WELLINGTON_PRES DS824_LAT DS824_LON DS824_STAGE DS824_WIND DS824_PRES TD9636_LAT TD9636_LON TD9636_STAGE TD9636_WIND TD9636_PRES TD9635_LAT TD9635_LON TD9635_WIND TD9635_PRES TD9635_ROCI NEUMANN_LAT NEUMANN_LON NEUMANN_CLASS NEUMANN_WIND NEUMANN_PRES MLC_LAT MLC_LON MLC_CLASS MLC_WIND MLC_PRES USA_GUST BOM_GUST BOM_GUST_PER REUNION_GUST REUNION_GUST_PER USA_SEAHGT USA_SEARAD_NE USA_SEARAD_SE USA_SEARAD_SW USA_SEARAD_NW STORM_SPEED STORM_DIR
1967293N21306 1967 127 NA NA HEIDI 1967-10-19 12:00:00 TS 20.5000 -54.0000 25 hurdat_atl main 1238 1168 O_____________ hurdat_atl AL251967 20.5000 -54.0000 TD 25 -1 14 278
1967293N21306 1967 127 NA NA HEIDI 1967-10-19 15:00:00 TS 20.5981 -54.7499 main 1168 1088 P_____________ AL251967 20.5981 -54.7499 TD 25 -1 14 278
1967293N21306 1967 127 NA NA HEIDI 1967-10-19 18:00:00 TS 20.7000 -55.5000 25 hurdat_atl main 1088 1020 O_____________ hurdat_atl AL251967 20.7000 -55.5000 TD 25 -1 14 278
1967293N21306 1967 127 NA NA HEIDI 1967-10-19 21:00:00 TS 20.8072 -56.2500 main 1020 942 P_____________ AL251967 20.8072 -56.2500 TD 27 -1 14 278
1967293N21306 1967 127 NA NA HEIDI 1967-10-20 00:00:00 TS 20.9000 -57.0000 30 hurdat_atl main 942 876 O_____________ hurdat_atl AL251967 20.9000 -57.0000 TD 30 -1 14 276
1967293N21306 1967 127 NA NA HEIDI 1967-10-20 03:00:00 TS 20.9572 -57.7502 main 866 797 P_____________ AL251967 20.9572 -57.7502 TD 30 -1 14 274
1967293N21306 1967 127 NA NA HEIDI 1967-10-20 06:00:00 TS 21.0000 -58.5000 30 hurdat_atl main 797 730 O_____________ hurdat_atl AL251967 21.0000 -58.5000 TD 30 -1 14 273
1967293N21306 1967 127 NA NA HEIDI 1967-10-20 09:00:00 TS 21.0347 -59.2503 main 720 659 P_____________ AL251967 21.0347 -59.2503 TD 30 -1 14 274
1967293N21306 1967 127 NA NA HEIDI 1967-10-20 12:00:00 TS 21.1000 -60.0000 30 hurdat_atl main 659 600 O_____________ hurdat_atl AL251967 21.1000 -60.0000 TD 30 -1 14 277
1967293N21306 1967 127 NA NA HEIDI 1967-10-20 15:00:00 TS 21.2198 -60.7576 main 591 544 P_____________ AL251967 21.2198 -60.7576 TD 32 -1 14 282
1967293N21306 1967 127 NA NA HEIDI 1967-10-20 18:00:00 TS 21.4000 -61.5000 35 1008 hurdat_atl main 544 504 O_____________ hurdat_atl AL251967 21.4000 -61.5000 TS 35 1008 0 14 287
1967293N21306 1967 127 NA NA HEIDI 1967-10-20 21:00:00 TS 21.6348 -62.2225 main 504 479 P_____________ AL251967 21.6348 -62.2225 TS 37 0 14 291
1967293N21306 1967 127 NA NA HEIDI 1967-10-21 00:00:00 TS 21.9000 -62.9000 40 hurdat_atl main 482 468 O_____________ hurdat_atl AL251967 21.9000 -62.9000 TS 40 0 13 292
1967293N21306 1967 127 NA NA HEIDI 1967-10-21 03:00:00 TS 22.1272 -63.5230 main 468 463 P_____________ AL251967 22.1272 -63.5230 TS 40 0 12 294
1967293N21306 1967 127 NA NA HEIDI 1967-10-21 06:00:00 TS 22.4000 -64.1000 40 hurdat_atl main 473 470 O_____________ hurdat_atl AL251967 22.4000 -64.1000 TS 40 0 12 300
1967293N21306 1967 127 NA NA HEIDI 1967-10-21 09:00:00 TS 22.7399 -64.6729 main 489 489 P_____________ AL251967 22.7399 -64.6729 TS 40 0 13 308
1967293N21306 1967 127 NA NA HEIDI 1967-10-21 12:00:00 TS 23.2000 -65.2000 40 hurdat_atl main 538 538 O_____________ hurdat_atl AL251967 23.2000 -65.2000 TS 40 0 14 319
1967293N21306 1967 127 NA NA HEIDI 1967-10-21 15:00:00 TS 23.8124 -65.6800 main 603 603 P_____________ AL251967 23.8124 -65.6800 TS 40 0 15 328
1967293N21306 1967 127 NA NA HEIDI 1967-10-21 18:00:00 TS 24.5000 -66.1000 40 1005 hurdat_atl main 668 668 O_____________ hurdat_atl AL251967 24.5000 -66.1000 TS 40 1005 0 16 331
1967293N21306 1967 127 NA NA HEIDI 1967-10-21 21:00:00 TS 25.1650 -66.5024 main 719 719 P_____________ AL251967 25.1650 -66.5024 TS 42 0 15 334
1967293N21306 1967 127 NA NA HEIDI 1967-10-22 00:00:00 TS 25.8000 -66.8000 45 hurdat_atl main 766 766 O_____________ hurdat_atl AL251967 25.8000 -66.8000 TS 45 0 13 340
1967293N21306 1967 127 NA NA HEIDI 1967-10-22 03:00:00 TS 26.3573 -66.9899 main 819 819 P_____________ AL251967 26.3573 -66.9899 TS 47 0 11 351
1967293N21306 1967 127 NA NA HEIDI 1967-10-22 06:00:00 TS 26.9000 -67.0000 50 hurdat_atl main 871 871 O_____________ hurdat_atl AL251967 26.9000 -67.0000 TS 50 0 11 7
1967293N21306 1967 127 NA NA HEIDI 1967-10-22 09:00:00 TS 27.4849 -66.8325 main 941 941 P_____________ AL251967 27.4849 -66.8325 TS 52 0 13 20
1967293N21306 1967 127 NA NA HEIDI 1967-10-22 12:00:00 TS 28.1000 -66.5000 55 1006 hurdat_atl main 1012 1012 O_____________ hurdat_atl AL251967 28.1000 -66.5000 TS 55 1006 0 14 27
1967293N21306 1967 127 NA NA HEIDI 1967-10-22 15:00:00 TS 28.7348 -66.1093 main 1088 1088 P_____________ AL251967 28.7348 -66.1093 TS 57 1003 0 15 31
1967293N21306 1967 127 NA NA HEIDI 1967-10-22 18:00:00 TS 29.4000 -65.6000 60 hurdat_atl main 1167 1160 I_____________ hurdat_atl AL251967 29.4000 -65.6000 TS 60 1000 0 17 35
1967293N21306 1967 127 NA NA HEIDI 1967-10-22 21:00:00 TS 30.0997 -65.0020 main 1165 1160 P_____________ AL251967 30.0997 -65.0020 TS 62 997 0 18 39
1967293N21306 1967 127 NA NA HEIDI 1967-10-23 00:00:00 TS 30.8000 -64.3000 65 995 hurdat_atl main 1177 1177 O_____________ hurdat_atl AL251967 30.8000 -64.3000 HU 65 995 1 19 42
1967293N21306 1967 127 NA NA HEIDI 1967-10-23 03:00:00 TS 31.5021 -63.5377 main 1206 1206 P_____________ AL251967 31.5021 -63.5377 HU 65 1 19 46
1967293N21306 1967 127 NA NA HEIDI 1967-10-23 06:00:00 TS 32.1000 -62.7000 65 hurdat_atl main 1247 1239 O_____________ hurdat_atl AL251967 32.1000 -62.7000 HU 65 1 18 54
1967293N21306 1967 127 NA NA HEIDI 1967-10-23 09:00:00 TS 32.5310 -61.8591 main 1249 1244 P_____________ AL251967 32.5310 -61.8591 HU 70 1 17 65
1967293N21306 1967 127 NA NA HEIDI 1967-10-23 12:00:00 TS 32.8000 -60.9000 75 hurdat_atl main 1251 1248 O_____________ hurdat_atl AL251967 32.8000 -60.9000 HU 75 1 18 77
1967293N21306 1967 127 NA NA HEIDI 1967-10-23 15:00:00 TS 32.9527 -59.7367 main 1265 1265 P_____________ AL251967 32.9527 -59.7367 HU 75 1 20 84
1967293N21306 1967 127 NA NA HEIDI 1967-10-23 18:00:00 TS 33.0000 -58.5000 75 hurdat_atl main 1309 1309 O_____________ hurdat_atl AL251967 33.0000 -58.5000 HU 75 1 20 88
1967293N21306 1967 127 NA NA HEIDI 1967-10-23 21:00:00 TS 33.0148 -57.2970 main 1359 1359 P_____________ AL251967 33.0148 -57.2970 HU 75 1 19 90
1967293N21306 1967 127 NA NA HEIDI 1967-10-24 00:00:00 TS 33.0000 -56.2000 75 hurdat_atl main 1410 1410 O_____________ hurdat_atl AL251967 33.0000 -56.2000 HU 75 1 17 91
1967293N21306 1967 127 NA NA HEIDI 1967-10-24 03:00:00 TS 32.9985 -55.2976 main 1445 1445 P_____________ AL251967 32.9985 -55.2976 HU 72 1 14 90
1967293N21306 1967 127 NA NA HEIDI 1967-10-24 06:00:00 TS 33.0000 -54.5000 70 hurdat_atl main 1470 1470 O_____________ hurdat_atl AL251967 33.0000 -54.5000 HU 70 1 13 90
1967293N21306 1967 127 NA NA HEIDI 1967-10-24 09:00:00 TS 32.9918 -53.6923 main 1498 1498 P_____________ AL251967 32.9918 -53.6923 HU 70 1 13 90
1967293N21306 1967 127 NA NA HEIDI 1967-10-24 12:00:00 TS 33.0000 -52.9000 70 999 hurdat_atl main 1513 1513 O_____________ hurdat_atl AL251967 33.0000 -52.9000 HU 70 999 1 14 88
1967293N21306 1967 127 NA NA HEIDI 1967-10-24 15:00:00 TS 33.0275 -52.0699 main 1516 1507 P_____________ AL251967 33.0275 -52.0699 HU 70 1 13 86
1967293N21306 1967 127 NA NA HEIDI 1967-10-24 18:00:00 TS 33.1000 -51.3000 70 hurdat_atl main 1511 1502 O_____________ hurdat_atl AL251967 33.1000 -51.3000 HU 70 1 12 81
1967293N21306 1967 127 NA NA HEIDI 1967-10-24 21:00:00 TS 33.2196 -50.6400 main 1507 1490 P_____________ AL251967 33.2196 -50.6400 HU 72 1 10 73
1967293N21306 1967 127 NA NA HEIDI 1967-10-25 00:00:00 TS 33.4000 -50.1000 75 hurdat_atl main 1492 1474 O_____________ hurdat_atl AL251967 33.4000 -50.1000 HU 75 1 9 63
1967293N21306 1967 127 NA NA HEIDI 1967-10-25 03:00:00 TS 33.6270 -49.6697 main 1476 1448 P_____________ AL251967 33.6270 -49.6697 HU 75 1 8 53
1967293N21306 1967 127 NA NA HEIDI 1967-10-25 06:00:00 TS 33.9000 -49.3000 75 hurdat_atl main 1450 1424 O_____________ hurdat_atl AL251967 33.9000 -49.3000 HU 75 1 9 48
1967293N21306 1967 127 NA NA HEIDI 1967-10-25 09:00:00 TS 34.2074 -48.9000 main 1426 1400 P_____________ AL251967 34.2074 -48.9000 HU 75 1 9 48
1967293N21306 1967 127 NA NA HEIDI 1967-10-25 12:00:00 TS 34.5000 -48.5000 75 989 hurdat_atl main 1402 1388 O_____________ hurdat_atl AL251967 34.5000 -48.5000 HU 75 989 1 8 52
1967293N21306 1967 127 NA NA HEIDI 1967-10-25 15:00:00 TS 34.7149 -48.0996 main 1391 1377 P_____________ AL251967 34.7149 -48.0996 HU 75 1 8 59
1967293N21306 1967 127 NA NA HEIDI 1967-10-25 18:00:00 TS 34.9000 -47.7000 75 hurdat_atl main 1380 1367 O_____________ hurdat_atl AL251967 34.9000 -47.7000 HU 75 1 8 60
1967293N21306 1967 127 NA NA HEIDI 1967-10-25 21:00:00 TS 35.1075 -47.2850 main 1370 1359 P_____________ AL251967 35.1075 -47.2850 HU 77 1 8 59
1967293N21306 1967 127 NA NA HEIDI 1967-10-26 00:00:00 TS 35.3000 -46.9000 80 hurdat_atl main 1362 1355 O_____________ hurdat_atl AL251967 35.3000 -46.9000 HU 80 1 7 60
1967293N21306 1967 127 NA NA HEIDI 1967-10-26 03:00:00 TS 35.4575 -46.5549 main 1351 1347 P_____________ AL251967 35.4575 -46.5549 HU 80 1 6 58
1967293N21306 1967 127 NA NA HEIDI 1967-10-26 06:00:00 TS 35.6000 -46.3000 80 hurdat_atl main 1351 1344 O_____________ hurdat_atl AL251967 35.6000 -46.3000 HU 80 1 4 48
1967293N21306 1967 127 NA NA HEIDI 1967-10-26 09:00:00 TS 35.7499 -46.1549 main 1344 1327 P_____________ AL251967 35.7499 -46.1549 HU 80 1 3 28
1967293N21306 1967 127 NA NA HEIDI 1967-10-26 12:00:00 TS 35.9000 -46.1000 80 hurdat_atl main 1327 1317 O_____________ hurdat_atl AL251967 35.9000 -46.1000 HU 80 1 3 14
1967293N21306 1967 127 NA NA HEIDI 1967-10-26 15:00:00 TS 36.0500 -46.0775 main 1317 1297 P_____________ AL251967 36.0500 -46.0775 HU 80 1 3 0
1967293N21306 1967 127 NA NA HEIDI 1967-10-26 18:00:00 TS 36.2000 -46.1000 80 981 hurdat_atl main 1297 1287 O_____________ hurdat_atl AL251967 36.2000 -46.1000 HU 80 981 1 3 351
1967293N21306 1967 127 NA NA HEIDI 1967-10-26 21:00:00 TS 36.3575 -46.1499 main 1277 1263 P_____________ AL251967 36.3575 -46.1499 HU 80 1 3 346
1967293N21306 1967 127 NA NA HEIDI 1967-10-27 00:00:00 TS 36.5000 -46.2000 80 hurdat_atl main 1263 1253 O_____________ hurdat_atl AL251967 36.5000 -46.2000 HU 80 1 2 346
1967293N21306 1967 127 NA NA HEIDI 1967-10-27 03:00:00 TS 36.6000 -46.2225 main 1253 1243 P_____________ AL251967 36.6000 -46.2225 HU 77 1 2 8
1967293N21306 1967 127 NA NA HEIDI 1967-10-27 06:00:00 TS 36.7000 -46.2000 75 hurdat_atl main 1243 1233 O_____________ hurdat_atl AL251967 36.7000 -46.2000 HU 75 1 2 19
1967293N21306 1967 127 NA NA HEIDI 1967-10-27 09:00:00 TS 36.8275 -46.1299 main 1237 1221 P_____________ AL251967 36.8275 -46.1299 HU 75 1 3 27
1967293N21306 1967 127 NA NA HEIDI 1967-10-27 12:00:00 TS 37.0000 -46.0000 75 991 hurdat_atl main 1221 1205 O_____________ hurdat_atl AL251967 37.0000 -46.0000 HU 75 991 1 5 31
1967293N21306 1967 127 NA NA HEIDI 1967-10-27 15:00:00 TS 37.2350 -45.8225 main 1209 1188 P_____________ AL251967 37.2350 -45.8225 HU 72 1 6 33
1967293N21306 1967 127 NA NA HEIDI 1967-10-27 18:00:00 TS 37.5000 -45.6000 70 hurdat_atl main 1188 1173 O_____________ hurdat_atl AL251967 37.5000 -45.6000 HU 70 1 6 35
1967293N21306 1967 127 NA NA HEIDI 1967-10-27 21:00:00 TS 37.7575 -45.3575 main 1168 1162 P_____________ AL251967 37.7575 -45.3575 HU 70 1 6 38
1967293N21306 1967 127 NA NA HEIDI 1967-10-28 00:00:00 TS 38.0000 -45.1000 70 hurdat_atl main 1162 1153 O_____________ hurdat_atl AL251967 38.0000 -45.1000 HU 70 1 6 41
1967293N21306 1967 127 NA NA HEIDI 1967-10-28 03:00:00 TS 38.2149 -44.8499 main 1158 1144 P_____________ AL251967 38.2149 -44.8499 HU 70 1 6 45
1967293N21306 1967 127 NA NA HEIDI 1967-10-28 06:00:00 TS 38.4000 -44.6000 70 hurdat_atl main 1149 1145 O_____________ hurdat_atl AL251967 38.4000 -44.6000 HU 70 1 5 50
1967293N21306 1967 127 NA NA HEIDI 1967-10-28 09:00:00 TS 38.5576 -44.3275 main 1146 1142 P_____________ AL251967 38.5576 -44.3275 HU 70 1 5 52
1967293N21306 1967 127 NA NA HEIDI 1967-10-28 12:00:00 TS 38.7000 -44.1000 70 994 hurdat_atl main 1148 1144 O_____________ hurdat_atl AL251967 38.7000 -44.1000 HU 70 994 1 4 43
1967293N21306 1967 127 NA NA HEIDI 1967-10-28 15:00:00 TS 38.8574 -43.9624 main 1135 1132 P_____________ AL251967 38.8574 -43.9624 HU 70 1 3 27
1967293N21306 1967 127 NA NA HEIDI 1967-10-28 18:00:00 TS 39.0000 -43.9000 70 hurdat_atl main 1132 1123 O_____________ hurdat_atl AL251967 39.0000 -43.9000 HU 70 1 3 11
1967293N21306 1967 127 NA NA HEIDI 1967-10-28 21:00:00 TS 39.1150 -43.8849 main 1123 1115 P_____________ AL251967 39.1150 -43.8849 HU 67 1 2 8
1967293N21306 1967 127 NA NA HEIDI 1967-10-29 00:00:00 TS 39.2000 -43.9000 65 hurdat_atl main 1115 1106 O_____________ hurdat_atl AL251967 39.2000 -43.9000 HU 65 1 2 0
1967293N21306 1967 127 NA NA HEIDI 1967-10-29 03:00:00 TS 39.2650 -43.8850 main 1106 1106 P_____________ AL251967 39.2650 -43.8850 HU 65 1 1 0
1967293N21306 1967 127 NA NA HEIDI 1967-10-29 06:00:00 TS 39.3000 -43.9000 65 hurdat_atl main 1106 1101 O_____________ hurdat_atl AL251967 39.3000 -43.9000 HU 65 1 1 317
1967293N21306 1967 127 NA NA HEIDI 1967-10-29 09:00:00 TS 39.3224 -43.9624 main 1101 1095 P_____________ AL251967 39.3224 -43.9624 HU 62 0 2 270
1967293N21306 1967 127 NA NA HEIDI 1967-10-29 12:00:00 TS 39.3000 -44.1000 60 hurdat_atl main 1095 1090 O_____________ hurdat_atl AL251967 39.3000 -44.1000 TS 60 0 3 250
1967293N21306 1967 127 NA NA HEIDI 1967-10-29 15:00:00 TS 39.2226 -44.3275 main 1093 1082 P_____________ AL251967 39.2226 -44.3275 TS 57 0 4 243
1967293N21306 1967 127 NA NA HEIDI 1967-10-29 18:00:00 TS 39.1000 -44.6000 55 hurdat_atl main 1086 1081 O_____________ hurdat_atl AL251967 39.1000 -44.6000 TS 55 0 5 235
1967293N21306 1967 127 NA NA HEIDI 1967-10-29 21:00:00 TS 38.9424 -44.8501 main 1089 1084 P_____________ AL251967 38.9424 -44.8501 TS 52 0 5 232
1967293N21306 1967 127 NA NA HEIDI 1967-10-30 00:00:00 TS 38.8000 -45.1000 50 hurdat_atl main 1088 1083 O_____________ hurdat_atl AL251967 38.8000 -45.1000 TS 50 0 5 239
1967293N21306 1967 127 NA NA HEIDI 1967-10-30 03:00:00 TS 38.7124 -45.3500 main 1083 1073 P_____________ AL251967 38.7124 -45.3500 TS 52 0 4 256
1967293N21306 1967 127 NA NA HEIDI 1967-10-30 06:00:00 TS 38.7000 -45.6000 55 hurdat_atl main 1073 1064 O_____________ hurdat_atl AL251967 38.7000 -45.6000 TS 55 0 4 275
1967293N21306 1967 127 NA NA HEIDI 1967-10-30 09:00:00 TS 38.7475 -45.8576 main 1059 1031 P_____________ AL251967 38.7475 -45.8576 TS 57 0 4 297
1967293N21306 1967 127 NA NA HEIDI 1967-10-30 12:00:00 TS 38.9000 -46.1000 60 hurdat_atl main 1031 1003 O_____________ hurdat_atl AL251967 38.9000 -46.1000 TS 60 0 5 318
1967293N21306 1967 127 NA NA HEIDI 1967-10-30 15:00:00 TS 39.1550 -46.3223 main 994 957 P_____________ AL251967 39.1550 -46.3223 TS 60 0 7 333
1967293N21306 1967 127 NA NA HEIDI 1967-10-30 18:00:00 TS 39.5000 -46.5000 60 hurdat_atl main 957 910 O_____________ hurdat_atl AL251967 39.5000 -46.5000 TS 60 0 8 340
1967293N21306 1967 127 NA NA HEIDI 1967-10-30 21:00:00 TS 39.8774 -46.6668 main 910 873 P_____________ AL251967 39.8774 -46.6668 TS 60 0 8 349
1967293N21306 1967 127 NA NA HEIDI 1967-10-31 00:00:00 TS 40.3000 -46.7000 60 hurdat_atl main 873 842 O_____________ hurdat_atl AL251967 40.3000 -46.7000 TS 60 0 9 6
1967293N21306 1967 127 NA NA HEIDI 1967-10-31 03:00:00 TS 40.7421 -46.5546 main 842 819 P_____________ AL251967 40.7421 -46.5546 TS 57 0 10 23
1967293N21306 1967 127 NA NA HEIDI 1967-10-31 06:00:00 TS 41.2000 -46.2000 55 hurdat_atl main 819 808 O_____________ hurdat_atl AL251967 41.2000 -46.2000 TS 55 0 11 36
1967293N21306 1967 127 NA NA HEIDI 1967-10-31 09:00:00 TS 41.6726 -45.6681 main 806 806 P_____________ AL251967 41.6726 -45.6681 TS 55 0 13 45
1967293N21306 1967 127 NA NA HEIDI 1967-10-31 12:00:00 TS 42.1000 -45.0000 55 hurdat_atl main 819 818 O_____________ hurdat_atl AL251967 42.1000 -45.0000 TS 55 0 13 52
1967293N21306 1967 127 NA NA HEIDI 1967-10-31 15:00:00 TS 42.4445 -44.3295 main 841 834 P_____________ AL251967 42.4445 -44.3295 TS 52 0 12 60
1967293N21306 1967 127 NA NA HEIDI 1967-10-31 18:00:00 TS 42.7000 -43.6000 50 hurdat_atl main 867 867 O_____________ hurdat_atl AL251967 42.7000 -43.6000 TS 50 0 12 68
1967293N21306 1967 127 NA NA HEIDI 1967-10-31 21:00:00 TS 42.8946 -42.8223 main 909 909 P_____________ AL251967 42.8946 -42.8223 TS 47 0 12 76
1967293N21306 1967 127 NA NA HEIDI 1967-11-01 00:00:00 ET 43.0000 -42.0000 45 hurdat_atl main 959 959 O_____________ hurdat_atl AL251967 43.0000 -42.0000 EX 45 -4 12 84
1967293N21306 1967 127 NA NA HEIDI 1967-11-01 03:00:00 ET 43.0219 -41.1641 main 1016 1016 P_____________ AL251967 43.0219 -41.1641 EX 42 -4 12 90
1967293N21306 1967 127 NA NA HEIDI 1967-11-01 06:00:00 ET 43.0000 -40.3000 40 hurdat_atl main 1079 1079 O_____________ hurdat_atl AL251967 43.0000 -40.3000 EX 40 -4 13 91
1967293N21306 1967 127 NA NA HEIDI 1967-11-01 09:00:00 ET 42.9996 -39.4000 main 1142 1142 P_____________ AL251967 42.9996 -39.4000 EX 40 -4 13 90
1967293N21306 1967 127 NA NA HEIDI 1967-11-01 12:00:00 ET 43.0000 -38.5000 40 hurdat_atl main 1205 1205 O_____________ hurdat_atl AL251967 43.0000 -38.5000 EX 40 -4 13 90
1967293N21306 1967 127 NA NA HEIDI 1967-11-01 15:00:00 ET 43.0010 -37.6375 main 1269 1269 P_____________ AL251967 43.0010 -37.6375 EX 40 -4 12 90
1967293N21306 1967 127 NA NA HEIDI 1967-11-01 18:00:00 ET 43.0000 -36.8000 40 hurdat_atl main 1326 O_____________ hurdat_atl AL251967 43.0000 -36.8000 EX 40 -4 12 90

IBTrACS Databaseについて

本データベースは、米国NOAAが公開する1842年以降の世界の熱帯低気圧のベストトラックデータアーカイブInternational Best Track Archive for Climate Stewardship (IBTrACS)を、ウェブで閲覧しやすい形式に変換したものです。

最終更新日:2021-12-06